createdAt,value
2022-07-29T00:00:09.205Z,17.40
2022-07-29T00:03:03.417Z,17.40
2022-07-29T00:05:36.891Z,17.40
2022-07-29T00:08:12.751Z,17.50
2022-07-29T00:10:46.444Z,17.60
2022-07-29T00:13:32.510Z,17.60
2022-07-29T00:16:06.986Z,17.70
2022-07-29T00:18:40.565Z,17.60
2022-07-29T00:21:13.748Z,17.50
2022-07-29T00:23:47.006Z,17.40
2022-07-29T00:26:20.214Z,17.30
2022-07-29T00:29:06.372Z,17.30
2022-07-29T00:31:45.244Z,17.30
2022-07-29T00:34:36.120Z,17.36
2022-07-29T00:37:09.375Z,17.30
2022-07-29T00:39:42.627Z,17.20
2022-07-29T00:46:49.403Z,17.04
2022-07-29T00:49:22.910Z,17.00
2022-07-29T00:51:56.943Z,16.90
2022-07-29T00:54:30.472Z,16.90
2022-07-29T00:57:06.569Z,16.90
2022-07-29T00:59:40.057Z,16.80
2022-07-29T01:02:13.515Z,16.80
2022-07-29T01:04:47.019Z,16.80
2022-07-29T01:07:21.133Z,16.70
2022-07-29T01:09:55.523Z,16.70
2022-07-29T01:12:32.867Z,16.70
2022-07-29T01:15:09.714Z,16.70
2022-07-29T01:17:53.307Z,16.70
2022-07-29T01:20:52.379Z,16.80
2022-07-29T01:24:07.124Z,16.80
2022-07-29T01:26:50.915Z,16.70
2022-07-29T01:29:38.871Z,16.70
2022-07-29T01:32:28.101Z,16.60
2022-07-29T01:35:07.538Z,16.60
2022-07-29T01:37:50.395Z,16.60
2022-07-29T01:40:29.503Z,16.50
2022-07-29T01:43:15.103Z,16.50
2022-07-29T01:45:55.141Z,16.40
2022-07-29T01:48:39.241Z,16.40
2022-07-29T01:51:18.845Z,16.30
2022-07-29T01:54:03.897Z,16.30
2022-07-29T01:56:39.988Z,16.30
2022-07-29T01:59:14.693Z,16.30
2022-07-29T02:02:18.926Z,16.20
2022-07-29T02:04:54.392Z,16.20
2022-07-29T02:07:31.312Z,16.10
2022-07-29T02:10:08.583Z,16.10
2022-07-29T02:12:50.859Z,16.00
2022-07-29T02:15:27.106Z,16.00
2022-07-29T02:18:07.445Z,16.00
2022-07-29T02:20:42.400Z,15.96
2022-07-29T02:23:20.790Z,15.90
2022-07-29T02:25:59.414Z,15.90
2022-07-29T02:28:34.955Z,15.90
2022-07-29T02:31:09.731Z,15.90
2022-07-29T02:33:45.085Z,15.82
2022-07-29T02:36:25.652Z,15.80
2022-07-29T02:39:02.766Z,15.80
2022-07-29T02:41:43.380Z,15.80
2022-07-29T02:44:20.082Z,15.80
2022-07-29T02:47:09.467Z,15.80
2022-07-29T02:49:52.338Z,15.70
2022-07-29T02:52:34.540Z,15.74
2022-07-29T02:55:20.584Z,15.70
2022-07-29T02:58:03.013Z,15.70
2022-07-29T03:00:40.914Z,15.80
2022-07-29T03:03:20.279Z,15.80
2022-07-29T03:05:57.124Z,15.90
2022-07-29T03:08:34.682Z,15.90
2022-07-29T03:11:10.134Z,15.90
2022-07-29T03:13:44.586Z,15.90
2022-07-29T03:16:20.562Z,16.00
2022-07-29T03:18:54.923Z,16.00
2022-07-29T03:21:28.261Z,16.00
2022-07-29T03:24:04.459Z,16.00
2022-07-29T03:26:40.529Z,16.00
2022-07-29T03:29:13.797Z,16.00
2022-07-29T03:31:47.972Z,16.00
2022-07-29T03:34:23.499Z,15.90
2022-07-29T03:36:56.875Z,15.82
2022-07-29T03:39:37.163Z,15.86
2022-07-29T03:42:15.749Z,15.80
2022-07-29T03:44:52.305Z,15.80
2022-07-29T03:47:50.021Z,15.78
2022-07-29T03:50:26.372Z,15.80
2022-07-29T03:53:00.817Z,15.80
2022-07-29T03:55:47.365Z,15.80
2022-07-29T03:58:22.365Z,15.90
2022-07-29T04:00:56.685Z,16.00
2022-07-29T04:03:30.149Z,16.00
2022-07-29T04:06:09.846Z,16.20
2022-07-29T04:08:43.889Z,16.30
2022-07-29T04:11:17.958Z,16.40
2022-07-29T04:13:51.177Z,16.40
2022-07-29T04:16:24.493Z,16.40
2022-07-29T04:18:57.840Z,16.36
2022-07-29T04:21:31.542Z,16.38
2022-07-29T04:24:04.733Z,16.40
2022-07-29T04:26:38.815Z,16.42
2022-07-29T04:29:13.016Z,16.50
2022-07-29T04:31:46.934Z,16.60
2022-07-29T04:34:20.451Z,16.64
2022-07-29T04:36:54.173Z,16.74
2022-07-29T04:39:29.667Z,16.88
2022-07-29T04:42:03.908Z,17.00
2022-07-29T04:44:39.469Z,17.10
2022-07-29T04:47:14.183Z,17.20
2022-07-29T04:49:47.413Z,17.40
2022-07-29T04:52:20.586Z,17.54
2022-07-29T04:54:53.920Z,17.70
2022-07-29T04:57:27.286Z,17.84
2022-07-29T05:00:04.157Z,18.00
2022-07-29T05:02:37.684Z,18.20
2022-07-29T05:05:12.191Z,18.40
2022-07-29T05:07:48.379Z,18.60
2022-07-29T05:10:21.845Z,18.76
2022-07-29T05:12:55.146Z,18.90
2022-07-29T05:15:28.575Z,19.00
2022-07-29T05:18:02.054Z,19.24
2022-07-29T05:20:35.717Z,19.50
2022-07-29T05:23:09.096Z,19.64
2022-07-29T05:25:44.628Z,19.74
2022-07-29T05:28:18.634Z,19.84
2022-07-29T05:30:52.441Z,20.00
2022-07-29T05:33:35.064Z,20.04
2022-07-29T05:36:11.404Z,20.10
2022-07-29T05:38:44.798Z,20.20
2022-07-29T05:41:18.151Z,20.20
2022-07-29T05:43:51.749Z,20.20
2022-07-29T05:46:25.178Z,20.30
2022-07-29T05:48:58.741Z,20.40
2022-07-29T05:51:33.658Z,20.60
2022-07-29T05:54:07.835Z,20.70
2022-07-29T05:56:42.241Z,20.72
2022-07-29T05:59:18.187Z,20.80
2022-07-29T06:01:51.821Z,20.80
2022-07-29T06:04:25.289Z,20.84
2022-07-29T06:06:58.681Z,20.92
2022-07-29T06:09:35.927Z,21.00
2022-07-29T06:12:10.838Z,21.10
2022-07-29T06:14:43.993Z,21.20
2022-07-29T06:17:17.813Z,21.30
2022-07-29T06:19:51.047Z,21.40
2022-07-29T06:22:24.854Z,21.58
2022-07-29T06:24:58.279Z,21.70
2022-07-29T06:27:31.902Z,21.90
2022-07-29T06:30:07.711Z,22.02
2022-07-29T06:32:43.169Z,22.20
2022-07-29T06:38:29.844Z,22.50
2022-07-29T06:41:04.968Z,22.60
2022-07-29T06:43:52.342Z,22.78
2022-07-29T06:46:28.862Z,22.92
2022-07-29T06:49:03.448Z,23.10
2022-07-29T06:51:37.076Z,23.30
2022-07-29T06:54:10.482Z,23.42
2022-07-29T06:56:44.334Z,23.62
2022-07-29T06:59:17.563Z,23.80
2022-07-29T07:01:50.794Z,24.00
2022-07-29T07:04:24.112Z,24.20
2022-07-29T07:06:57.708Z,24.30
2022-07-29T07:09:40.192Z,24.50
2022-07-29T07:12:14.969Z,24.70
2022-07-29T07:14:48.398Z,24.80
2022-07-29T07:17:21.586Z,24.90
2022-07-29T07:19:54.889Z,25.00
2022-07-29T07:22:28.146Z,25.14
2022-07-29T07:25:01.552Z,25.30
2022-07-29T07:27:34.864Z,25.40
2022-07-29T07:30:10.453Z,25.50
2022-07-29T07:32:43.936Z,25.68
2022-07-29T07:35:17.262Z,25.90
2022-07-29T07:37:51.143Z,26.10
2022-07-29T07:40:24.892Z,26.22
2022-07-29T07:54:47.466Z,26.80
2022-07-29T07:57:21.019Z,26.70
2022-07-29T07:59:54.298Z,26.70
2022-07-29T08:02:27.876Z,26.70
2022-07-29T08:05:01.559Z,26.70
2022-07-29T08:07:34.798Z,26.70
2022-07-29T08:10:09.284Z,26.70
2022-07-29T08:12:42.753Z,26.78
2022-07-29T08:15:15.968Z,26.80
2022-07-29T08:17:49.195Z,26.86
2022-07-29T08:20:22.821Z,26.90
2022-07-29T08:22:56.765Z,26.90
2022-07-29T08:28:38.933Z,27.10
2022-07-29T08:31:12.548Z,27.30
2022-07-29T08:33:46.657Z,27.50
2022-07-29T08:36:22.224Z,27.64
2022-07-29T08:38:57.198Z,27.80
2022-07-29T08:41:32.432Z,28.00
2022-07-29T08:44:22.262Z,28.10
2022-07-29T08:47:03.368Z,28.30
2022-07-29T08:49:39.643Z,28.48
2022-07-29T08:52:16.745Z,28.60
2022-07-29T08:54:51.778Z,28.70
2022-07-29T08:57:27.462Z,28.90
2022-07-29T09:00:07.993Z,29.10
2022-07-29T09:02:58.279Z,29.20
2022-07-29T09:05:36.876Z,29.30
2022-07-29T09:08:14.551Z,29.28
2022-07-29T09:11:13.873Z,29.20
2022-07-29T09:13:48.991Z,29.20
2022-07-29T09:16:43.669Z,29.12
2022-07-29T09:19:26.245Z,29.10
2022-07-29T09:22:03.597Z,29.10
2022-07-29T09:24:47.859Z,29.20
2022-07-29T09:27:30.075Z,29.30
2022-07-29T09:30:06.665Z,29.40
2022-07-29T09:33:02.243Z,29.40
2022-07-29T09:35:36.091Z,29.46
2022-07-29T09:38:16.966Z,29.50
2022-07-29T09:41:05.824Z,29.60
2022-07-29T09:43:41.595Z,29.70
2022-07-29T09:46:20.553Z,29.80
2022-07-29T09:49:13.947Z,29.80
2022-07-29T09:52:02.151Z,29.90
2022-07-29T09:54:39.304Z,29.90
2022-07-29T09:57:30.595Z,29.90
2022-07-29T10:00:09.348Z,29.90
2022-07-29T10:02:52.305Z,29.90
2022-07-29T10:05:36.342Z,29.90
2022-07-29T10:08:11.217Z,29.80
2022-07-29T10:10:46.640Z,29.80
2022-07-29T10:13:20.325Z,29.80
2022-07-29T10:15:54.118Z,29.90
2022-07-29T10:18:27.662Z,29.86
2022-07-29T10:21:03.093Z,29.80
2022-07-29T10:23:47.097Z,29.84
2022-07-29T10:26:22.775Z,29.90
2022-07-29T10:28:57.650Z,29.90
2022-07-29T10:31:52.695Z,29.96
2022-07-29T10:34:39.312Z,30.10
2022-07-29T10:37:29.026Z,30.28
2022-07-29T10:40:48.487Z,30.50
2022-07-29T10:43:33.887Z,30.70
2022-07-29T10:46:09.583Z,30.90
2022-07-29T10:49:11.243Z,31.00
2022-07-29T10:52:05.753Z,31.20
2022-07-29T10:54:54.788Z,31.44
2022-07-29T11:00:36.347Z,31.92
2022-07-29T11:03:10.923Z,32.08
2022-07-29T11:06:01.083Z,32.22
2022-07-29T11:08:35.145Z,32.40
2022-07-29T15:26:21.626Z,33.28
2022-07-29T15:28:56.655Z,33.20
2022-07-29T15:31:30.078Z,33.00
2022-07-29T15:34:06.244Z,32.92
2022-07-29T15:36:56.037Z,33.02
2022-07-29T15:39:29.650Z,33.92
2022-07-29T15:42:04.452Z,35.00
2022-07-29T15:44:37.635Z,34.70
2022-07-29T15:47:11.000Z,34.46
2022-07-29T15:49:49.491Z,34.02
2022-07-29T15:52:25.920Z,33.52
2022-07-29T15:55:03.089Z,33.00
2022-07-29T15:57:42.833Z,32.56
2022-07-29T16:03:24.776Z,31.70
2022-07-29T16:05:58.319Z,31.30
2022-07-29T16:08:31.613Z,30.90
2022-07-29T16:11:04.944Z,30.48
2022-07-29T16:13:38.269Z,30.20
2022-07-29T16:16:11.899Z,29.94
2022-07-29T16:18:45.244Z,29.90
2022-07-29T16:21:18.705Z,29.90
2022-07-29T16:23:52.944Z,30.18
2022-07-29T16:26:26.247Z,30.96
2022-07-29T16:28:59.736Z,31.20
2022-07-29T16:31:33.571Z,31.20
2022-07-29T16:34:07.021Z,31.40
2022-07-29T16:36:47.374Z,31.68
2022-07-29T16:39:21.859Z,31.70
2022-07-29T16:41:59.645Z,31.70
2022-07-29T16:44:36.226Z,31.60
2022-07-29T16:47:15.822Z,31.60
2022-07-29T16:49:50.758Z,31.80
2022-07-29T16:52:25.321Z,31.80
2022-07-29T16:55:01.724Z,31.60
2022-07-29T16:57:35.150Z,31.40
2022-07-29T17:00:11.158Z,31.20
2022-07-29T17:02:44.679Z,31.00
2022-07-29T17:05:18.356Z,30.80
2022-07-29T17:07:51.589Z,30.60
2022-07-29T17:10:25.840Z,30.40
2022-07-29T17:13:01.426Z,30.14
2022-07-29T17:15:36.570Z,30.00
2022-07-29T17:18:12.293Z,29.90
2022-07-29T17:20:46.695Z,29.70
2022-07-29T17:23:19.915Z,29.50
2022-07-29T17:25:53.154Z,29.40
2022-07-29T17:28:26.971Z,29.20
2022-07-29T17:31:00.517Z,28.96
2022-07-29T17:33:33.736Z,28.70
2022-07-29T17:36:26.979Z,28.50
2022-07-29T17:39:07.751Z,28.32
2022-07-29T17:41:41.946Z,28.16
2022-07-29T17:44:15.477Z,28.00
2022-07-29T17:46:48.907Z,27.80
2022-07-29T17:49:22.451Z,27.60
2022-07-29T17:52:00.453Z,27.40
2022-07-29T17:54:34.812Z,27.20
2022-07-29T17:57:08.776Z,27.00
2022-07-29T17:59:42.230Z,26.84
2022-07-29T18:02:15.596Z,26.70
2022-07-29T18:04:50.675Z,26.60
2022-07-29T18:07:26.579Z,26.40
2022-07-29T18:10:00.732Z,26.28
2022-07-29T18:12:34.802Z,26.10
2022-07-29T18:15:09.616Z,26.00
2022-07-29T18:17:56.435Z,25.90
2022-07-29T18:20:32.163Z,25.76
2022-07-29T18:23:06.003Z,25.70
2022-07-29T18:25:40.130Z,25.60
2022-07-29T18:28:17.634Z,25.50
2022-07-29T18:30:52.911Z,25.40
2022-07-29T18:33:26.628Z,25.40
2022-07-29T18:36:10.624Z,25.30
2022-07-29T18:39:03.611Z,25.20
2022-07-29T18:41:50.239Z,25.20
2022-07-29T18:44:24.966Z,25.10
2022-07-29T18:46:58.685Z,25.10
2022-07-29T18:49:32.524Z,25.00
2022-07-29T18:52:07.279Z,25.00
2022-07-29T18:54:40.609Z,24.90
2022-07-29T18:57:55.455Z,24.90
2022-07-29T19:00:11.040Z,24.80
2022-07-29T19:02:47.305Z,24.80
2022-07-29T19:05:28.882Z,24.80
2022-07-29T19:08:02.959Z,24.80
2022-07-29T19:10:38.734Z,24.70
2022-07-29T19:13:13.471Z,24.64
2022-07-29T19:15:47.070Z,24.60
2022-07-29T19:18:20.759Z,24.50
2022-07-29T19:20:53.984Z,24.40
2022-07-29T19:23:27.693Z,24.40
2022-07-29T19:26:01.042Z,24.30
2022-07-29T19:28:34.524Z,24.20
2022-07-29T19:31:08.725Z,24.10
2022-07-29T19:33:42.597Z,24.10
2022-07-29T19:36:24.750Z,24.00
2022-07-29T19:38:58.028Z,23.90
2022-07-29T19:41:31.575Z,23.90
2022-07-29T19:44:05.730Z,23.80
2022-07-29T19:46:39.549Z,23.70
2022-07-29T19:49:13.826Z,23.64
2022-07-29T19:51:47.373Z,23.56
2022-07-29T19:54:20.959Z,23.50
2022-07-29T19:56:54.503Z,23.40
2022-07-29T19:59:28.198Z,23.30
2022-07-29T20:02:03.222Z,23.20
2022-07-29T20:04:36.869Z,23.10
2022-07-29T20:07:13.216Z,23.00
2022-07-29T22:05:17.882Z,23.14
2022-07-29T22:07:56.069Z,23.00
2022-07-29T22:10:33.536Z,22.70
2022-07-29T22:13:07.349Z,22.48
2022-07-29T22:15:45.337Z,22.30
2022-07-29T22:18:20.468Z,22.10
2022-07-29T22:20:54.389Z,21.90
2022-07-29T22:23:27.699Z,21.80
2022-07-29T22:26:01.041Z,21.60
2022-07-29T22:28:54.618Z,21.50
2022-07-29T22:31:27.906Z,21.46
2022-07-29T22:34:01.086Z,21.40
2022-07-29T22:36:34.310Z,21.30
2022-07-29T22:39:07.568Z,21.20
2022-07-29T22:41:40.816Z,21.20
2022-07-29T22:44:14.005Z,21.10
2022-07-29T22:46:47.832Z,21.00
2022-07-29T22:49:21.210Z,20.92
2022-07-29T22:51:54.497Z,20.90
2022-07-29T22:54:27.665Z,20.82
2022-07-29T22:57:01.438Z,20.80
2022-07-29T22:59:34.937Z,20.70
2022-07-29T23:02:08.193Z,20.70
2022-07-29T23:04:41.545Z,20.60
2022-07-29T23:07:17.742Z,20.60
2022-07-29T23:09:51.052Z,20.58
2022-07-29T23:12:26.813Z,20.50
2022-07-29T23:15:00.174Z,20.50
2022-07-29T23:17:36.352Z,20.50
2022-07-29T23:20:14.861Z,20.50
2022-07-29T23:22:48.315Z,20.46
2022-07-29T23:25:21.932Z,20.40
2022-07-29T23:27:55.248Z,20.50
2022-07-29T23:30:31.721Z,20.50
2022-07-29T23:33:05.474Z,20.46
2022-07-29T23:35:38.989Z,20.40
2022-07-29T23:38:13.891Z,20.40
2022-07-29T23:40:47.438Z,20.40
2022-07-29T23:43:21.180Z,20.40
2022-07-29T23:45:54.505Z,20.40
2022-07-29T23:48:32.386Z,20.40
2022-07-29T23:51:05.875Z,20.40
2022-07-29T23:53:53.024Z,20.40
2022-07-29T23:56:27.615Z,20.40
2022-07-29T23:59:00.970Z,20.40
